Erquelinnes, Belgium
Current Conditions -  °F | °C
As of 9:20 PM on Friday 28 Nov 2014 (Local Time) from EBCI Reporting Station
Clear Clear  
Wind Chill: 39°   Ceiling: Unl
Heat Index: 45°   Visibility: 4mi
Dew Point: 41°   Wind: 10mph
Humidity: 87%   Direction: 70°ENE
Pressure: 29.77"   Gusts: NA
Location:  50.31°N, 4.11°E
Report Text: EBCI 282020Z 07009KT 7000 NSC 07/05 Q1008 NOSIG
Loading
Personal Weather Stations






























Interactive Weather Map New forecast layout! Learn more

10-Day Weather Forecast

Advertisements
Track Severe Weather on mobile